Terminal Aerodrome Forecast
Issued by NWS Duluth, MN

Home | Current Version | Previous Version | Text Only | Print | Product List | Glossary On
Versions: 1 2 3 4 5 6 7 8 9 10 11 12 13 14 15 16 17 18
000
FTUS43 KDLH 051735
TAFDLH
TAF
KDLH 051735Z 0518/0618 25012KT P6SM SKC
     FM051900 25012G21KT P6SM SKC
     FM052200 25015G25KT P6SM SKC
     FM060100 25008KT P6SM SKC=

USA.gov is the U.S. government's official web portal to all federal, state and local government web resources and services.